Flight Track Log - Related Links

Times and Time Zones

All times are in EDT time to prevent confusion due to time zone crossing. See the JBU918 flight status page for this flight to view local times or setup timezone preferences in your user account.

Time Position Orientation Groundspeed Altitude Reporting Facility
EDT Latitude Longitude Course Direction KTS MPH feet Rate Location/Type
Thu 05:29:26 PM 40.6308 -73.7494 33° Northeast 199 229 1,700  Level Boston Center
Thu 05:29:56 PM 40.6333 -73.7000 86° East 217 250 2,800 2,200 Climbing New York TRACON
Thu 05:30:56 PM 40.6667 -73.6167 62° Northeast 282 325 5,000 1,150 Climbing New York TRACON
Thu 05:31:00 PM 40.8740 -73.5630 21° North  Level FlightAware Approximate
Thu 05:31:56 PM 40.7167 -73.5333 52° Northeast 291 335 5,100  Level New York TRACON
Thu 05:32:00 PM 40.9549 -73.4952 37° Northeast  Level FlightAware Approximate
Thu 05:33:00 PM 41.0341 -73.4223 33° Northeast  Level FlightAware Approximate
Thu 05:33:33 PM 40.8178 -73.4314 37° Northeast 292 336 8,400  Level Boston Center
Thu 05:34:00 PM 41.1147 -73.3517 33° Northeast  Level FlightAware Approximate
Thu 05:34:33 PM 40.8956 -73.3892 22° Northeast 303 349 11,000  Level Boston Center
Thu 05:35:37 PM 40.9906 -73.3397 21° North 370 426 12,500 1,935 Climbing Boston Center
Thu 05:36:37 PM 41.0917 -73.2872 21° North 385 443 15,000 2,371 Climbing Boston Center
Thu 05:37:41 PM 41.1978 -73.2336 21° North 402 463 17,400 2,081 Climbing Boston Center
Thu 05:38:41 PM 41.3028 -73.1656 26° Northeast 419 482 19,300 1,770 Climbing Boston Center
Thu 05:39:43 PM 41.3619 -73.0236 61° Northeast 443 510 21,000 829 Climbing Boston Center
Thu 05:40:44 PM 41.3975 -72.8647 73° East 444 511 21,000  Level Boston Center
Thu 05:41:48 PM 41.4431 -72.6714 72° East 453 521 21,000  Level Boston Center
Thu 05:42:48 PM 41.4792 -72.5103 73° East 454 522 21,000 -197 Level Boston Center
Thu 05:43:50 PM 41.4989 -72.3467 81° East 453 521 20,600 -1,008 Descending Boston Center
Thu 05:44:53 PM 41.5022 -72.1772 88° East 450 518 18,900 -1,561 Descending Boston Center
Thu 05:45:53 PM 41.5072 -72.0056 88° East 435 501 17,400 -1,113 Descending Boston Center
Thu 05:46:57 PM 41.5542 -71.8675 66° East 409 471 16,600 -871 Descending Boston Center
Thu 05:47:57 PM 41.6081 -71.7342 62° Northeast 385 443 15,600 -919 Descending Boston Center
Thu 05:49:01 PM 41.6569 -71.6125 62° Northeast 377 434 14,700 -912 Descending Boston Center
Thu 05:50:02 PM 41.7106 -71.4828 61° Northeast 377 434 13,700 -934 Descending Boston Center
Thu 05:51:03 PM 41.7586 -71.3633 62° Northeast 369 425 12,800 -1,131 Descending Boston Center
Thu 05:52:04 PM 41.8456 -71.3006 28° Northeast 339 390 11,400 -1,296 Descending Boston Center
Thu 05:53:08 PM 41.9322 -71.2794 10° North 320 368 10,100 -1,392 Descending Boston Center
Thu 05:54:09 PM 42.0206 -71.2614 North 301 346 8,500 -1,587 Descending Boston Center
Thu 05:55:09 PM 42.0983 -71.2444 North 289 333 6,900 -1,574 Descending Boston Center
Thu 05:56:11 PM 42.1789 -71.2086 18° North 286 329 5,300 -905 Descending Boston Center
Thu 05:57:15 PM 42.2461 -71.1797 18° North 254 292 5,000 -145 Descending Boston Center
Thu 05:58:15 PM 42.3083 -71.1525 18° North 239 275 5,000  Level Boston Center
Thu 05:59:19 PM 42.3728 -71.1222 19° North 239 275 5,000  Level Boston Center
Thu 06:00:19 PM 42.4406 -71.0942 17° North 238 274 5,000 -48 Level Boston Center
Thu 06:01:23 PM 42.5036 -71.0681 17° North 238 274 4,900 -484 Descending Boston Center
Thu 06:02:23 PM 42.5708 -71.0400 17° North 238 274 4,000 -435 Descending Boston Center
Thu 06:03:27 PM 42.6069 -70.9889 46° Northeast 225 259 4,000 -288 Level Boston Center
Thu 06:04:28 PM 42.5761 -70.9297 125° Southeast 193 222 3,400 -496 Descending Boston Center
Thu 06:05:28 PM 42.5264 -70.9250 176° South 179 206 3,000 -532 Descending Boston Center
Thu 06:06:32 PM 42.4856 -70.9475 202° Southwest 161 185 2,300 -823 Descending Boston Center
Thu 06:07:32 PM 42.4403 -70.9678 198° South 160 184 1,300 -787 Descending Boston Center
Thu 06:08:34 PM 42.4086 -70.9844 201° Southwest 129 148 700 -571 Descending Boston Center
Thu 06:09:38 PM 42.3781 -70.9975 198° South 121 139 100 -563 Descending Boston Center

Login

Don't have an account? Register now (free) for customized features, flight alerts, and more!